Time;durP1;ratioP1;P1;durP2;ratioP2;P2;SDS_P1;SDS_P2;PMS_P1;PMS_P2;Temp;Humidity;BMP_temperature;BMP_pressure;BME280_temperature;BME280_humidity;BME280_pressure;Samples;Min_cycle;Max_cycle;Signal;HPM_P1;HPM_P2
2020/12/15 00:02:19;;;;;;;0.20;0.20;;;;;;;;;;5122118;27;20031;-76
2020/12/15 00:04:44;;;;;;;0.20;0.20;;;;;;;;;;5102707;27;20026;-78
2020/12/15 00:07:10;;;;;;;0.10;0.10;;;;;;;;;;5137387;27;20034;-77
2020/12/15 00:09:35;;;;;;;0.20;0.20;;;;;;;;;;5140387;27;20102;-77
2020/12/15 00:12:01;;;;;;;0.20;0.20;;;;;;;;;;5100778;27;20501;-77
2020/12/15 00:14:26;;;;;;;0.20;0.20;;;;;;;;;;5119180;27;20469;-77
2020/12/15 00:16:56;;;;;;;0.20;0.20;;;;;;;;;;5101801;27;20059;-77
2020/12/15 00:19:24;;;;;;;0.20;0.20;;;;;;;;;;5119576;27;20055;-77
2020/12/15 00:21:49;;;;;;;0.20;0.20;;;;;;;;;;5113248;28;20156;-79
2020/12/15 00:24:15;;;;;;;0.20;0.20;;;;;;;;;;5117931;27;20031;-79
2020/12/15 00:26:41;;;;;;;0.20;0.20;;;;;;;;;;5116863;27;20106;-77
2020/12/15 00:29:06;;;;;;;0.17;0.17;;;;;;;;;;5117387;27;20035;-77
2020/12/15 00:31:34;;;;;;;0.20;0.20;;;;;;;;;;5135976;27;20617;-77
2020/12/15 00:34:00;;;;;;;0.20;0.20;;;;;;;;;;5116969;27;20059;-77
2020/12/15 00:36:25;;;;;;;0.20;0.20;;;;;;;;;;5100887;27;20026;-77
2020/12/15 00:38:51;;;;;;;0.20;0.20;;;;;;;;;;5118116;27;20019;-77
2020/12/15 00:41:16;;;;;;;0.20;0.20;;;;;;;;;;5118007;27;20421;-78
2020/12/15 00:43:44;;;;;;;0.20;0.20;;;;;;;;;;5132351;27;20506;-77
2020/12/15 00:46:15;;;;;;;0.20;0.20;;;;;;;;;;5118041;27;20038;-78
2020/12/15 00:48:40;;;;;;;0.20;0.20;;;;;;;;;;5099704;27;20502;-77
2020/12/15 00:51:06;;;;;;;0.20;0.20;;;;;;;;;;5100234;27;20031;-77
2020/12/15 00:53:31;;;;;;;0.20;0.20;;;;;;;;;;5095327;28;20024;-77
2020/12/15 00:55:56;;;;;;;0.20;0.20;;;;;;;;;;5085800;28;20042;-77
2020/12/15 00:58:22;;;;;;;0.20;0.20;;;;;;;;;;5098962;28;20036;-77
2020/12/15 01:00:47;;;;;;;0.20;0.20;;;;;;;;;;5093383;28;20065;-78
2020/12/15 01:03:13;;;;;;;0.20;0.20;;;;;;;;;;5106137;28;20173;-77
2020/12/15 01:05:38;;;;;;;0.20;0.20;;;;;;;;;;5090022;28;20073;-78
2020/12/15 01:08:03;;;;;;;0.10;0.10;;;;;;;;;;5073339;28;20370;-78
2020/12/15 01:10:29;;;;;;;0.20;0.20;;;;;;;;;;5083526;28;20028;-78
2020/12/15 01:12:54;;;;;;;0.20;0.20;;;;;;;;;;5086571;28;20295;-78
2020/12/15 01:15:19;;;;;;;0.17;0.17;;;;;;;;;;5114928;28;20036;-78
2020/12/15 01:17:44;;;;;;;0.20;0.20;;;;;;;;;;5120220;28;20023;-78
2020/12/15 01:20:09;;;;;;;0.20;0.20;;;;;;;;;;5094585;28;20141;-78
2020/12/15 01:22:34;;;;;;;0.20;0.20;;;;;;;;;;5089197;28;20766;-78
2020/12/15 01:25:00;;;;;;;0.20;0.20;;;;;;;;;;5063705;28;20326;-78
2020/12/15 01:27:25;;;;;;;0.20;0.20;;;;;;;;;;5114702;28;20312;-79
2020/12/15 01:29:50;;;;;;;0.10;0.10;;;;;;;;;;5115231;28;20035;-78
2020/12/15 01:32:16;;;;;;;0.20;0.20;;;;;;;;;;5094821;28;20039;-77
2020/12/15 01:34:41;;;;;;;0.20;0.20;;;;;;;;;;5099824;28;20726;-77
2020/12/15 01:37:06;;;;;;;0.20;0.20;;;;;;;;;;5098784;28;20028;-78
2020/12/15 01:39:31;;;;;;;0.20;0.20;;;;;;;;;;5097876;28;20265;-78
2020/12/15 01:41:57;;;;;;;0.20;0.20;;;;;;;;;;5073241;28;20040;-79
2020/12/15 01:44:22;;;;;;;0.20;0.20;;;;;;;;;;5096824;28;20265;-78
2020/12/15 01:46:47;;;;;;;0.10;0.10;;;;;;;;;;5119152;28;20031;-77
2020/12/15 01:49:12;;;;;;;0.20;0.20;;;;;;;;;;5101559;28;20035;-78
2020/12/15 01:51:38;;;;;;;0.20;0.20;;;;;;;;;;5113174;28;20292;-78
2020/12/15 01:54:03;;;;;;;0.10;0.10;;;;;;;;;;5081422;28;20253;-77
2020/12/15 01:56:29;;;;;;;0.20;0.20;;;;;;;;;;5101899;28;20296;-77
2020/12/15 01:58:54;;;;;;;0.20;0.20;;;;;;;;;;5099488;28;20040;-77
2020/12/15 02:01:20;;;;;;;0.20;0.20;;;;;;;;;;5118063;28;20055;-77
2020/12/15 02:03:45;;;;;;;0.10;0.10;;;;;;;;;;5103133;28;20031;-77
2020/12/15 02:06:10;;;;;;;0.20;0.20;;;;;;;;;;5100852;28;20024;-77
2020/12/15 02:08:36;;;;;;;0.20;0.20;;;;;;;;;;5118498;28;20257;-78
2020/12/15 02:11:01;;;;;;;0.17;0.17;;;;;;;;;;5117551;28;20103;-78
2020/12/15 02:13:26;;;;;;;0.20;0.20;;;;;;;;;;5139983;28;20031;-77
2020/12/15 02:15:52;;;;;;;0.20;0.20;;;;;;;;;;5118955;28;20514;-78
2020/12/15 02:18:17;;;;;;;0.20;0.20;;;;;;;;;;5119665;28;20530;-77
2020/12/15 02:20:43;;;;;;;0.20;0.20;;;;;;;;;;5139071;28;20287;-77
2020/12/15 02:23:08;;;;;;;0.20;0.20;;;;;;;;;;5117249;28;20027;-77
2020/12/15 02:25:33;;;;;;;0.20;0.20;;;;;;;;;;5084534;28;20549;-77
2020/12/15 02:27:58;;;;;;;0.20;0.20;;;;;;;;;;5115456;28;20099;-77
2020/12/15 02:30:24;;;;;;;0.10;0.10;;;;;;;;;;5118396;28;20277;-78
2020/12/15 02:32:49;;;;;;;0.20;0.20;;;;;;;;;;5101098;27;20501;-77
2020/12/15 02:35:14;;;;;;;0.10;0.10;;;;;;;;;;5121039;27;20035;-78
2020/12/15 02:37:40;;;;;;;0.20;0.20;;;;;;;;;;5124083;27;20023;-77
2020/12/15 02:40:05;;;;;;;0.20;0.20;;;;;;;;;;5108798;27;20041;-77
2020/12/15 02:42:31;;;;;;;0.20;0.20;;;;;;;;;;5122680;27;20775;-77
2020/12/15 02:44:56;;;;;;;0.20;0.20;;;;;;;;;;5100624;28;20531;-78
2020/12/15 02:47:21;;;;;;;0.10;0.10;;;;;;;;;;5101722;28;20031;-77
2020/12/15 02:49:46;;;;;;;0.10;0.10;;;;;;;;;;5107211;27;20027;-77
2020/12/15 02:52:12;;;;;;;0.20;0.20;;;;;;;;;;5099648;28;20039;-77
2020/12/15 02:54:39;;;;;;;0.20;0.20;;;;;;;;;;5128257;27;20417;-78
2020/12/15 02:57:05;;;;;;;0.20;0.20;;;;;;;;;;5100806;28;20147;-78
2020/12/15 02:59:30;;;;;;;0.13;0.13;;;;;;;;;;5110470;28;20032;-78
2020/12/15 03:01:56;;;;;;;0.20;0.20;;;;;;;;;;5097404;28;20369;-78
2020/12/15 03:04:21;;;;;;;0.20;0.20;;;;;;;;;;5099711;28;20549;-78
2020/12/15 03:06:46;;;;;;;0.20;0.20;;;;;;;;;;5096648;28;20263;-78
2020/12/15 03:09:11;;;;;;;0.20;0.20;;;;;;;;;;5085710;28;20035;-78
2020/12/15 03:11:37;;;;;;;0.20;0.20;;;;;;;;;;5119123;28;20507;-78
2020/12/15 03:14:03;;;;;;;0.20;0.20;;;;;;;;;;5119755;28;20027;-78
2020/12/15 03:16:28;;;;;;;0.10;0.10;;;;;;;;;;5104802;28;20533;-78
2020/12/15 03:18:53;;;;;;;0.10;0.10;;;;;;;;;;5093803;28;20034;-78
2020/12/15 03:21:20;;;;;;;0.20;0.20;;;;;;;;;;5099486;28;20031;-78
2020/12/15 03:23:45;;;;;;;0.20;0.20;;;;;;;;;;5097493;28;20139;-78
2020/12/15 03:26:11;;;;;;;0.20;0.20;;;;;;;;;;5070505;28;20060;-78
2020/12/15 03:28:36;;;;;;;0.20;0.20;;;;;;;;;;5078739;28;20551;-78
2020/12/15 03:31:01;;;;;;;0.20;0.20;;;;;;;;;;5096752;28;20031;-78
2020/12/15 03:33:27;;;;;;;0.20;0.20;;;;;;;;;;5081141;28;20270;-78
2020/12/15 03:35:52;;;;;;;0.10;0.10;;;;;;;;;;5079315;28;20112;-78
2020/12/15 03:38:17;;;;;;;0.17;0.17;;;;;;;;;;5076984;28;20029;-78
2020/12/15 03:40:42;;;;;;;0.20;0.20;;;;;;;;;;5103544;28;20031;-77
2020/12/15 03:43:07;;;;;;;0.20;0.20;;;;;;;;;;5098330;28;20027;-78
2020/12/15 03:45:33;;;;;;;0.20;0.20;;;;;;;;;;5100550;28;20034;-78
2020/12/15 03:47:58;;;;;;;0.20;0.20;;;;;;;;;;5109379;28;20036;-78
2020/12/15 03:50:23;;;;;;;0.20;0.20;;;;;;;;;;5074836;28;20411;-79
2020/12/15 03:52:48;;;;;;;0.20;0.20;;;;;;;;;;5057259;28;20056;-77
2020/12/15 03:55:14;;;;;;;0.15;0.15;;;;;;;;;;5085637;27;20077;-78
2020/12/15 03:57:39;;;;;;;0.20;0.20;;;;;;;;;;5134220;27;20023;-78
2020/12/15 04:00:05;;;;;;;0.20;0.20;;;;;;;;;;5119880;27;20391;-78
2020/12/15 04:02:30;;;;;;;0.20;0.20;;;;;;;;;;5104727;27;20023;-77
2020/12/15 04:04:56;;;;;;;0.10;0.10;;;;;;;;;;5113942;27;20020;-78
2020/12/15 04:07:22;;;;;;;0.20;0.20;;;;;;;;;;5136504;27;20080;-78
2020/12/15 04:09:47;;;;;;;0.10;0.10;;;;;;;;;;5103040;28;20122;-78
2020/12/15 04:12:12;;;;;;;0.20;0.20;;;;;;;;;;5101531;27;20091;-78
2020/12/15 04:14:38;;;;;;;0.20;0.20;;;;;;;;;;5122888;27;20107;-77
2020/12/15 04:17:04;;;;;;;0.20;0.20;;;;;;;;;;5101521;27;20802;-78
2020/12/15 04:19:29;;;;;;;0.13;0.13;;;;;;;;;;5118573;27;20424;-78
2020/12/15 04:21:55;;;;;;;0.20;0.20;;;;;;;;;;5138291;27;20027;-78
2020/12/15 04:24:20;;;;;;;0.20;0.20;;;;;;;;;;5140244;27;20057;-78
2020/12/15 04:26:46;;;;;;;0.10;0.10;;;;;;;;;;5120105;27;20062;-78
2020/12/15 04:29:11;;;;;;;0.17;0.17;;;;;;;;;;5101968;27;20062;-78
2020/12/15 04:31:37;;;;;;;0.20;0.20;;;;;;;;;;5099677;28;20059;-78
2020/12/15 04:34:02;;;;;;;0.20;0.20;;;;;;;;;;5118040;28;20254;-77
2020/12/15 04:36:28;;;;;;;0.20;0.20;;;;;;;;;;5119186;28;20031;-78
2020/12/15 04:38:53;;;;;;;0.20;0.20;;;;;;;;;;5118447;27;20026;-79
2020/12/15 04:41:19;;;;;;;0.20;0.20;;;;;;;;;;5137854;27;20035;-78
2020/12/15 04:43:44;;;;;;;0.20;0.20;;;;;;;;;;5103899;27;20038;-77
2020/12/15 04:46:10;;;;;;;0.20;0.20;;;;;;;;;;5098993;28;20155;-77
2020/12/15 04:48:35;;;;;;;0.20;0.20;;;;;;;;;;5098277;28;20031;-78
2020/12/15 04:51:01;;;;;;;0.20;0.20;;;;;;;;;;5101069;27;20035;-78
2020/12/15 04:53:26;;;;;;;0.20;0.20;;;;;;;;;;5099858;28;20023;-78
2020/12/15 04:55:52;;;;;;;0.13;0.13;;;;;;;;;;5114309;27;20294;-78
2020/12/15 04:58:18;;;;;;;0.20;0.20;;;;;;;;;;5094917;28;20081;-78
2020/12/15 05:00:43;;;;;;;0.20;0.20;;;;;;;;;;5078765;28;20453;-77
2020/12/15 05:03:09;;;;;;;0.17;0.17;;;;;;;;;;5095799;28;20040;-77
2020/12/15 05:05:34;;;;;;;0.20;0.20;;;;;;;;;;5096511;28;20258;-77
2020/12/15 05:08:01;;;;;;;0.17;0.17;;;;;;;;;;5099869;28;20040;-77
2020/12/15 05:10:26;;;;;;;0.10;0.10;;;;;;;;;;5085280;28;20039;-77
2020/12/15 05:12:51;;;;;;;0.20;0.20;;;;;;;;;;5082221;28;20024;-77
2020/12/15 05:15:18;;;;;;;0.20;0.20;;;;;;;;;;5095665;28;20075;-77
2020/12/15 05:17:43;;;;;;;0.20;0.20;;;;;;;;;;5081389;28;20564;-77
2020/12/15 05:20:09;;;;;;;0.20;0.20;;;;;;;;;;5097195;28;20361;-77
2020/12/15 05:22:41;;;;;;;0.10;0.10;;;;;;;;;;5095357;28;20024;-77
2020/12/15 05:25:06;;;;;;;0.20;0.20;;;;;;;;;;5070712;28;20024;-77
2020/12/15 05:27:32;;;;;;;0.20;0.20;;;;;;;;;;5077640;28;20128;-77
2020/12/15 05:30:07;;;;;;;0.20;0.20;;;;;;;;;;5093034;28;20036;-77
2020/12/15 05:32:32;;;;;;;0.20;0.20;;;;;;;;;;5093141;28;20035;-77
2020/12/15 05:35:07;;;;;;;0.20;0.20;;;;;;;;;;5091295;28;20118;-77
2020/12/15 05:37:33;;;;;;;0.20;0.20;;;;;;;;;;5078369;28;20044;-77
2020/12/15 05:39:59;;;;;;;0.20;0.20;;;;;;;;;;5096058;28;20032;-78
2020/12/15 05:42:24;;;;;;;0.20;0.20;;;;;;;;;;5094655;28;20035;-77
2020/12/15 05:44:49;;;;;;;0.20;0.20;;;;;;;;;;5094218;28;20024;-77
2020/12/15 05:47:15;;;;;;;0.20;0.20;;;;;;;;;;5093238;28;20028;-78
2020/12/15 05:49:40;;;;;;;0.20;0.20;;;;;;;;;;5094000;28;20988;-78
2020/12/15 05:52:09;;;;;;;0.20;0.20;;;;;;;;;;5094061;28;20062;-79
2020/12/15 05:54:34;;;;;;;0.20;0.20;;;;;;;;;;5078088;28;20024;-79
2020/12/15 05:57:00;;;;;;;0.20;0.20;;;;;;;;;;5111423;28;20042;-79
2020/12/15 05:59:26;;;;;;;0.13;0.13;;;;;;;;;;5124721;27;20030;-78
2020/12/15 06:01:51;;;;;;;0.20;0.20;;;;;;;;;;5122538;27;20364;-78
2020/12/15 06:04:17;;;;;;;0.13;0.13;;;;;;;;;;5118866;28;20202;-78
2020/12/15 06:06:42;;;;;;;0.20;0.20;;;;;;;;;;5102039;28;20025;-78
2020/12/15 06:09:09;;;;;;;0.10;0.10;;;;;;;;;;5131043;27;20030;-78
2020/12/15 06:11:35;;;;;;;0.20;0.20;;;;;;;;;;5142537;27;20030;-78
2020/12/15 06:14:00;;;;;;;0.10;0.10;;;;;;;;;;5140462;27;20035;-77
2020/12/15 06:16:26;;;;;;;0.13;0.13;;;;;;;;;;5105232;28;20047;-78
2020/12/15 06:18:51;;;;;;;0.20;0.20;;;;;;;;;;5083736;28;20123;-77
2020/12/15 06:21:17;;;;;;;0.20;0.20;;;;;;;;;;5101882;27;20756;-78
2020/12/15 06:23:43;;;;;;;0.20;0.20;;;;;;;;;;5112045;28;20040;-78
2020/12/15 06:26:08;;;;;;;0.20;0.20;;;;;;;;;;5091002;28;20027;-77
2020/12/15 06:28:33;;;;;;;0.20;0.20;;;;;;;;;;5119843;28;20040;-77
2020/12/15 06:30:59;;;;;;;0.20;0.20;;;;;;;;;;5119359;28;20341;-77
2020/12/15 06:33:34;;;;;;;0.20;0.20;;;;;;;;;;5108807;27;20120;-76
2020/12/15 06:35:59;;;;;;;0.20;0.20;;;;;;;;;;5106152;27;20150;-77
2020/12/15 06:38:25;;;;;;;0.20;0.20;;;;;;;;;;5123514;27;20043;-78
2020/12/15 06:40:50;;;;;;;0.20;0.20;;;;;;;;;;5133698;27;20034;-77
2020/12/15 06:43:29;;;;;;;0.20;0.20;;;;;;;;;;5141987;27;20027;-78
2020/12/15 06:46:07;;;;;;;0.20;0.20;;;;;;;;;;5133766;28;20081;-77
2020/12/15 06:48:33;;;;;;;0.20;0.20;;;;;;;;;;5117679;27;20020;-77
2020/12/15 06:50:59;;;;;;;0.20;0.20;;;;;;;;;;5136213;27;20092;-78
2020/12/15 06:53:24;;;;;;;0.20;0.20;;;;;;;;;;5104660;28;20031;-77
2020/12/15 06:55:59;;;;;;;0.20;0.20;;;;;;;;;;5085926;28;20781;-77
2020/12/15 06:58:24;;;;;;;0.20;0.20;;;;;;;;;;5082796;28;20039;-77
2020/12/15 07:00:50;;;;;;;0.20;0.20;;;;;;;;;;5101399;28;20131;-77
2020/12/15 07:03:15;;;;;;;0.20;0.20;;;;;;;;;;5086464;28;20043;-77
2020/12/15 07:05:40;;;;;;;0.20;0.20;;;;;;;;;;5082818;28;20034;-78
2020/12/15 07:08:09;;;;;;;0.20;0.20;;;;;;;;;;5119540;28;20118;-78
2020/12/15 07:10:34;;;;;;;0.20;0.20;;;;;;;;;;5100825;28;20039;-78
2020/12/15 07:13:00;;;;;;;0.20;0.20;;;;;;;;;;5116733;28;20127;-77
2020/12/15 07:15:29;;;;;;;0.15;0.15;;;;;;;;;;5120975;28;20097;-77
2020/12/15 07:17:55;;;;;;;0.20;0.20;;;;;;;;;;5100509;28;20039;-79
2020/12/15 07:20:20;;;;;;;0.20;0.20;;;;;;;;;;5115074;28;20031;-78
2020/12/15 07:22:45;;;;;;;0.15;0.15;;;;;;;;;;5098412;28;20032;-78
2020/12/15 07:25:10;;;;;;;0.20;0.20;;;;;;;;;;5100401;28;20027;-76
2020/12/15 07:27:36;;;;;;;0.17;0.17;;;;;;;;;;5134888;27;20300;-75
2020/12/15 07:30:02;;;;;;;0.20;0.20;;;;;;;;;;5100588;28;20040;-76
2020/12/15 07:32:28;;;;;;;0.20;0.20;;;;;;;;;;5100742;28;20032;-77
2020/12/15 07:35:03;;;;;;;0.20;0.20;;;;;;;;;;5085726;28;20117;-77
2020/12/15 07:37:29;;;;;;;;;;;;;;;;;;5117101;28;20039;-77
2020/12/15 07:39:54;;;;;;;;;;;;;;;;;;5120205;28;19904;-77
2020/12/15 07:42:20;;;;;;;0.20;0.20;;;;;;;;;;5121020;28;19908;-77
2020/12/15 07:44:45;;;;;;;0.20;0.20;;;;;;;;;;5092022;28;20066;-77
2020/12/15 07:47:10;;;;;;;0.20;0.20;;;;;;;;;;5090982;28;20063;-76
2020/12/15 07:49:36;;;;;;;0.10;0.10;;;;;;;;;;5110545;28;20280;-77
2020/12/15 07:52:01;;;;;;;0.20;0.20;;;;;;;;;;5118166;28;20093;-76
2020/12/15 07:54:26;;;;;;;0.20;0.20;;;;;;;;;;5105838;28;20361;-78
2020/12/15 07:56:52;;;;;;;0.13;0.13;;;;;;;;;;5094030;28;20290;-77
2020/12/15 07:59:18;;;;;;;0.20;0.20;;;;;;;;;;5086800;28;20035;-77
2020/12/15 08:01:43;;;;;;;0.20;0.20;;;;;;;;;;5112201;28;20035;-78
2020/12/15 08:04:08;;;;;;;0.20;0.20;;;;;;;;;;5098495;28;20035;-78
2020/12/15 08:06:35;;;;;;;0.20;0.20;;;;;;;;;;5119083;28;20038;-78
2020/12/15 08:09:00;;;;;;;0.20;0.20;;;;;;;;;;5093596;28;20071;-77
2020/12/15 08:11:26;;;;;;;0.20;0.20;;;;;;;;;;5107419;28;20043;-78
2020/12/15 08:13:52;;;;;;;0.20;0.20;;;;;;;;;;5107749;28;20027;-78
2020/12/15 08:16:17;;;;;;;0.20;0.20;;;;;;;;;;5117409;28;20097;-78
2020/12/15 08:18:43;;;;;;;0.20;0.20;;;;;;;;;;5100911;28;20031;-78
2020/12/15 08:21:12;;;;;;;0.20;0.20;;;;;;;;;;5109566;28;20057;-77
2020/12/15 08:23:38;;;;;;;0.15;0.15;;;;;;;;;;5099768;28;20028;-77
2020/12/15 08:26:03;;;;;;;0.20;0.20;;;;;;;;;;5078514;28;20028;-77
2020/12/15 08:28:28;;;;;;;0.20;0.20;;;;;;;;;;5080318;28;20051;-77
2020/12/15 08:30:54;;;;;;;0.20;0.20;;;;;;;;;;5106348;28;20274;-77
2020/12/15 08:33:20;;;;;;;0.20;0.20;;;;;;;;;;5088777;28;20032;-77
2020/12/15 08:35:48;;;;;;;0.20;0.20;;;;;;;;;;5097394;28;20049;-77
2020/12/15 08:38:13;;;;;;;0.20;0.20;;;;;;;;;;5091744;28;20060;-77
2020/12/15 08:40:38;;;;;;;0.20;0.20;;;;;;;;;;5096134;28;20032;-77
2020/12/15 08:43:04;;;;;;;0.20;0.20;;;;;;;;;;5108152;28;20084;-78
2020/12/15 08:45:29;;;;;;;0.13;0.13;;;;;;;;;;5097209;28;20711;-77
2020/12/15 08:47:55;;;;;;;0.20;0.20;;;;;;;;;;5113438;28;20038;-77
2020/12/15 08:50:21;;;;;;;0.20;0.20;;;;;;;;;;5097941;28;20039;-78
2020/12/15 08:52:47;;;;;;;0.20;0.20;;;;;;;;;;5115100;28;20594;-78
2020/12/15 08:55:12;;;;;;;0.20;0.20;;;;;;;;;;5082704;28;20691;-77
2020/12/15 08:57:37;;;;;;;0.20;0.20;;;;;;;;;;5097172;28;20067;-77
2020/12/15 09:00:09;;;;;;;0.20;0.20;;;;;;;;;;5113345;27;20153;-76
2020/12/15 09:02:35;;;;;;;0.15;0.15;;;;;;;;;;5142231;27;20030;-77
2020/12/15 09:05:06;;;;;;;0.20;0.20;;;;;;;;;;5108707;27;20035;-77
2020/12/15 09:07:32;;;;;;;0.28;0.28;;;;;;;;;;5119696;27;20019;-76
2020/12/15 09:10:07;;;;;;;0.20;0.20;;;;;;;;;;5121113;27;20032;-77
2020/12/15 09:12:32;;;;;;;0.20;0.20;;;;;;;;;;5118887;27;20035;-77
2020/12/15 09:15:01;;;;;;;0.20;0.20;;;;;;;;;;5121893;27;20081;-77
2020/12/15 09:17:26;;;;;;;0.20;0.20;;;;;;;;;;5119121;27;20031;-78
2020/12/15 09:19:51;;;;;;;0.13;0.13;;;;;;;;;;5103488;27;20046;-77
2020/12/15 09:22:17;;;;;;;0.20;0.20;;;;;;;;;;5122326;28;20031;-77
2020/12/15 09:24:43;;;;;;;0.20;0.20;;;;;;;;;;5116918;27;20062;-77
2020/12/15 09:27:21;;;;;;;0.20;0.20;;;;;;;;;;5118343;27;20019;-77
2020/12/15 09:29:46;;;;;;;0.10;0.10;;;;;;;;;;5117513;28;20038;-77
2020/12/15 09:32:12;;;;;;;0.10;0.10;;;;;;;;;;5101221;28;20458;-77
2020/12/15 09:34:37;;;;;;;0.20;0.20;;;;;;;;;;5119992;28;20046;-78
2020/12/15 09:37:02;;;;;;;0.20;0.20;;;;;;;;;;5101638;28;20027;-77
2020/12/15 09:39:29;;;;;;;0.20;0.20;;;;;;;;;;5124445;28;20027;-77
2020/12/15 09:42:00;;;;;;;0.10;0.10;;;;;;;;;;5101726;27;20019;-76
2020/12/15 09:44:26;;;;;;;0.20;0.20;;;;;;;;;;5122427;27;20740;-76
2020/12/15 09:46:52;;;;;;;0.20;0.20;;;;;;;;;;5101706;27;20027;-77
2020/12/15 09:49:17;;;;;;;0.20;0.20;;;;;;;;;;5103814;28;20034;-76
2020/12/15 09:51:43;;;;;;;0.10;0.10;;;;;;;;;;5120757;27;20490;-76
2020/12/15 09:54:09;;;;;;;0.20;0.20;;;;;;;;;;5104851;27;20075;-76
2020/12/15 09:56:35;;;;;;;0.20;0.20;;;;;;;;;;5097381;28;20377;-77
2020/12/15 09:59:00;;;;;;;0.20;0.20;;;;;;;;;;5099808;28;20039;-77
2020/12/15 10:01:26;;;;;;;0.20;0.20;;;;;;;;;;5117646;28;20023;-76
2020/12/15 10:03:51;;;;;;;0.20;0.20;;;;;;;;;;5118859;28;20092;-76
2020/12/15 10:06:17;;;;;;;0.20;0.20;;;;;;;;;;5119891;28;20035;-76
2020/12/15 10:08:42;;;;;;;0.13;0.13;;;;;;;;;;5117186;28;20066;-76
2020/12/15 10:11:12;;;;;;;0.20;0.20;;;;;;;;;;5119648;28;20032;-76
2020/12/15 10:13:37;;;;;;;0.20;0.20;;;;;;;;;;5100480;28;20550;-74
2020/12/15 10:16:02;;;;;;;0.10;0.10;;;;;;;;;;5096065;28;20162;-75
2020/12/15 10:18:27;;;;;;;0.20;0.20;;;;;;;;;;5096561;28;20048;-75
2020/12/15 10:20:53;;;;;;;0.20;0.20;;;;;;;;;;5096518;28;20705;-75
2020/12/15 10:23:18;;;;;;;0.20;0.20;;;;;;;;;;5119190;28;20023;-75
2020/12/15 10:25:43;;;;;;;0.20;0.20;;;;;;;;;;5100494;28;20388;-76
2020/12/15 10:28:11;;;;;;;0.20;0.20;;;;;;;;;;5119286;28;20307;-74
2020/12/15 10:30:36;;;;;;;0.20;0.20;;;;;;;;;;5122246;27;20140;-76
2020/12/15 10:33:02;;;;;;;0.20;0.20;;;;;;;;;;5120413;27;20707;-76
2020/12/15 10:35:27;;;;;;;0.20;0.20;;;;;;;;;;5138885;27;20023;-76
2020/12/15 10:37:53;;;;;;;0.20;0.20;;;;;;;;;;5130666;27;20028;-76
2020/12/15 10:40:18;;;;;;;0.20;0.20;;;;;;;;;;5121594;28;20028;-76
2020/12/15 10:42:44;;;;;;;0.10;0.10;;;;;;;;;;5130816;27;20463;-75
2020/12/15 10:45:09;;;;;;;0.10;0.10;;;;;;;;;;5136267;27;20030;-75
2020/12/15 10:47:34;;;;;;;0.10;0.10;;;;;;;;;;5107677;28;20020;-75
2020/12/15 10:49:59;;;;;;;0.10;0.10;;;;;;;;;;5091155;28;20058;-75
2020/12/15 10:52:25;;;;;;;0.10;0.10;;;;;;;;;;5082851;28;20484;-76
2020/12/15 10:54:50;;;;;;;0.17;0.17;;;;;;;;;;5094917;28;20028;-75
2020/12/15 10:57:15;;;;;;;0.10;0.10;;;;;;;;;;5098292;27;20286;-75
2020/12/15 10:59:41;;;;;;;0.10;0.10;;;;;;;;;;5113382;28;20038;-75
2020/12/15 11:02:07;;;;;;;0.10;0.10;;;;;;;;;;5097293;28;20092;-75
2020/12/15 11:04:32;;;;;;;0.15;0.15;;;;;;;;;;5113431;28;20032;-75
2020/12/15 11:06:57;;;;;;;0.20;0.20;;;;;;;;;;5117925;28;20429;-74
2020/12/15 11:09:23;;;;;;;0.10;0.10;;;;;;;;;;5116273;28;20496;-75
2020/12/15 11:11:48;;;;;;;0.20;0.20;;;;;;;;;;5123334;27;20114;-75
2020/12/15 11:14:14;;;;;;;0.20;0.20;;;;;;;;;;5114796;28;20019;-75
2020/12/15 11:16:39;;;;;;;0.20;0.20;;;;;;;;;;5098679;28;20073;-75
2020/12/15 11:19:04;;;;;;;0.20;0.20;;;;;;;;;;5094370;28;20031;-73
2020/12/15 11:21:30;;;;;;;0.20;0.20;;;;;;;;;;5101312;28;20273;-73
2020/12/15 11:23:55;;;;;;;0.20;0.20;;;;;;;;;;5115538;27;20519;-76
2020/12/15 11:26:20;;;;;;;0.10;0.10;;;;;;;;;;5098307;28;20032;-77
2020/12/15 11:28:46;;;;;;;0.20;0.20;;;;;;;;;;5096532;28;20573;-77
2020/12/15 11:31:12;;;;;;;0.20;0.20;;;;;;;;;;5111121;28;20099;-81
2020/12/15 11:33:37;;;;;;;0.20;0.20;;;;;;;;;;5115340;28;20019;-82
2020/12/15 11:36:03;;;;;;;0.20;0.20;;;;;;;;;;5115735;28;20034;-83
2020/12/15 11:38:28;;;;;;;0.20;0.20;;;;;;;;;;5134300;28;20050;-83
2020/12/15 11:40:53;;;;;;;0.10;0.10;;;;;;;;;;5134000;28;20536;-84
2020/12/15 11:43:19;;;;;;;0.10;0.10;;;;;;;;;;5116883;28;20031;-84
2020/12/15 11:45:45;;;;;;;0.20;0.20;;;;;;;;;;5133686;28;20031;-84
2020/12/15 11:48:11;;;;;;;0.10;0.10;;;;;;;;;;5115874;28;20055;-84
2020/12/15 11:50:36;;;;;;;0.10;0.10;;;;;;;;;;5133256;28;20062;-84
2020/12/15 11:53:01;;;;;;;0.20;0.20;;;;;;;;;;5116444;28;20039;-85
2020/12/15 11:55:27;;;;;;;0.15;0.15;;;;;;;;;;5135581;27;20044;-84
2020/12/15 11:57:53;;;;;;;0.10;0.10;;;;;;;;;;5155238;27;20058;-84
2020/12/15 12:00:18;;;;;;;0.10;0.10;;;;;;;;;;5155363;27;20099;-85
2020/12/15 12:02:43;;;;;;;0.10;0.10;;;;;;;;;;5120500;27;20007;-85
2020/12/15 12:05:09;;;;;;;0.10;0.10;;;;;;;;;;5137919;27;20034;-85
2020/12/15 12:07:35;;;;;;;0.10;0.10;;;;;;;;;;5127725;27;20023;-85
2020/12/15 12:10:00;;;;;;;0.10;0.10;;;;;;;;;;5134451;27;20026;-83
2020/12/15 12:12:26;;;;;;;0.10;0.10;;;;;;;;;;5112143;28;20019;-84
2020/12/15 12:14:51;;;;;;;0.10;0.10;;;;;;;;;;5113414;27;20074;-84
2020/12/15 12:17:17;;;;;;;0.10;0.10;;;;;;;;;;5119123;27;20028;-84
2020/12/15 12:19:45;;;;;;;0.20;0.20;;;;;;;;;;5137712;27;20030;-84
2020/12/15 12:22:11;;;;;;;0.17;0.17;;;;;;;;;;5132826;27;20111;-84
2020/12/15 12:24:36;;;;;;;0.20;0.20;;;;;;;;;;5133491;27;20027;-84
2020/12/15 12:27:01;;;;;;;0.10;0.10;;;;;;;;;;5122488;28;20031;-84
2020/12/15 12:29:27;;;;;;;0.15;0.15;;;;;;;;;;5100321;28;20028;-84
2020/12/15 12:31:52;;;;;;;0.10;0.10;;;;;;;;;;5129895;27;20031;-84
2020/12/15 12:34:17;;;;;;;0.20;0.20;;;;;;;;;;5115364;28;20470;-83
2020/12/15 12:36:43;;;;;;;0.20;0.20;;;;;;;;;;5115485;28;20529;-85
2020/12/15 12:39:08;;;;;;;0.20;0.20;;;;;;;;;;5120422;27;20030;-84
2020/12/15 12:41:33;;;;;;;0.20;0.20;;;;;;;;;;5120937;27;20053;-84
2020/12/15 12:43:59;;;;;;;0.20;0.20;;;;;;;;;;5102465;27;20042;-84
2020/12/15 12:46:24;;;;;;;0.20;0.20;;;;;;;;;;5135972;27;20049;-83
2020/12/15 12:48:49;;;;;;;0.13;0.13;;;;;;;;;;5124006;28;20032;-88
2020/12/15 12:51:16;;;;;;;0.17;0.17;;;;;;;;;;5155035;27;20027;-88
2020/12/15 12:53:42;;;;;;;0.13;0.13;;;;;;;;;;5121438;27;20003;-84
2020/12/15 12:56:07;;;;;;;0.10;0.10;;;;;;;;;;5094130;28;20028;-85
2020/12/15 12:58:33;;;;;;;0.20;0.20;;;;;;;;;;5129236;28;20018;-82
2020/12/15 13:00:59;;;;;;;0.20;0.20;;;;;;;;;;5134583;27;20065;-79
2020/12/15 13:03:24;;;;;;;0.10;0.10;;;;;;;;;;5124781;28;20007;-83
2020/12/15 13:05:50;;;;;;;0.17;0.17;;;;;;;;;;5124343;27;20048;-82
2020/12/15 13:08:15;;;;;;;0.20;0.20;;;;;;;;;;5147864;27;20012;-81
2020/12/15 13:10:41;;;;;;;0.17;0.17;;;;;;;;;;5125335;28;20032;-82
2020/12/15 13:13:06;;;;;;;0.17;0.17;;;;;;;;;;5102455;28;20035;-81
2020/12/15 13:15:32;;;;;;;0.10;0.10;;;;;;;;;;5111995;28;20008;-82
2020/12/15 13:17:57;;;;;;;0.10;0.10;;;;;;;;;;5117935;28;20035;-80
2020/12/15 13:20:24;;;;;;;0.10;0.10;;;;;;;;;;5124088;28;20112;-81
2020/12/15 13:22:49;;;;;;;0.20;0.20;;;;;;;;;;5107319;28;20041;-81
2020/12/15 13:25:15;;;;;;;0.20;0.20;;;;;;;;;;5097109;28;20088;-80
2020/12/15 13:27:40;;;;;;;0.10;0.10;;;;;;;;;;5103600;28;20024;-80
2020/12/15 13:30:06;;;;;;;0.20;0.20;;;;;;;;;;5108034;28;20467;-81
2020/12/15 13:32:31;;;;;;;0.10;0.10;;;;;;;;;;5090167;28;20047;-81
2020/12/15 13:34:56;;;;;;;0.20;0.20;;;;;;;;;;5105907;28;20035;-80
2020/12/15 13:37:22;;;;;;;0.10;0.10;;;;;;;;;;5123957;28;20028;-81
2020/12/15 13:39:49;;;;;;;0.10;0.10;;;;;;;;;;5111917;28;20036;-82
2020/12/15 13:42:15;;;;;;;0.10;0.10;;;;;;;;;;5094913;28;20024;-82
2020/12/15 13:44:40;;;;;;;0.20;0.20;;;;;;;;;;5099290;28;20047;-80
2020/12/15 13:47:06;;;;;;;0.20;0.20;;;;;;;;;;5118909;28;20032;-81
2020/12/15 13:49:31;;;;;;;0.20;0.20;;;;;;;;;;5114296;28;20028;-79
2020/12/15 13:51:57;;;;;;;0.20;0.20;;;;;;;;;;5108734;28;20030;-81
2020/12/15 13:54:22;;;;;;;0.10;0.10;;;;;;;;;;5093053;28;20025;-82
2020/12/15 13:56:48;;;;;;;0.20;0.20;;;;;;;;;;5108606;28;20040;-82
2020/12/15 13:59:13;;;;;;;0.10;0.10;;;;;;;;;;5126553;28;20028;-84
2020/12/15 14:01:43;;;;;;;0.15;0.15;;;;;;;;;;5109796;28;20009;-83
2020/12/15 14:04:08;;;;;;;0.20;0.20;;;;;;;;;;5095675;28;20023;-83
2020/12/15 14:06:33;;;;;;;0.10;0.10;;;;;;;;;;5114135;28;20032;-82
2020/12/15 14:08:59;;;;;;;0.20;0.20;;;;;;;;;;5093298;28;20027;-82
2020/12/15 14:11:25;;;;;;;0.20;0.20;;;;;;;;;;5125939;28;20028;-82
2020/12/15 14:13:51;;;;;;;0.15;0.15;;;;;;;;;;5096958;28;20055;-82
2020/12/15 14:16:16;;;;;;;0.20;0.20;;;;;;;;;;5098891;28;20055;-81
2020/12/15 14:18:42;;;;;;;0.20;0.20;;;;;;;;;;5114280;28;20020;-82
2020/12/15 14:21:08;;;;;;;0.10;0.10;;;;;;;;;;5122021;28;20092;-83
2020/12/15 14:23:33;;;;;;;0.10;0.10;;;;;;;;;;5101297;28;20032;-78
2020/12/15 14:26:05;;;;;;;0.10;0.10;;;;;;;;;;5099570;28;20348;-78
2020/12/15 14:28:31;;;;;;;0.20;0.15;;;;;;;;;;5110954;28;20107;-80
2020/12/15 14:30:57;;;;;;;0.10;0.10;;;;;;;;;;5099313;28;20476;-78
2020/12/15 14:33:23;;;;;;;0.10;0.10;;;;;;;;;;5098926;28;20065;-81
2020/12/15 14:35:48;;;;;;;0.20;0.20;;;;;;;;;;5110946;28;20095;-80